createdAt,value
2018-02-18T00:00:18.164Z,-0.19
2018-02-18T00:02:45.696Z,-0.17
2018-02-18T00:05:13.333Z,-0.06
2018-02-18T00:07:40.807Z,-0.06
2018-02-18T00:10:08.279Z,-0.12
2018-02-18T00:12:35.748Z,-0.18
2018-02-18T00:15:05.036Z,-0.18
2018-02-18T00:17:32.537Z,-0.20
2018-02-18T00:19:59.986Z,-0.18
2018-02-18T00:22:27.685Z,-0.19
2018-02-18T00:24:55.158Z,-0.25
2018-02-18T00:27:22.618Z,-0.36
2018-02-18T00:29:50.120Z,-0.40
2018-02-18T00:32:17.729Z,-0.40
2018-02-18T00:34:45.315Z,-0.45
2018-02-18T00:37:12.898Z,-0.55
2018-02-18T00:39:40.358Z,-0.61
2018-02-18T00:42:11.957Z,-0.68
2018-02-18T00:44:42.497Z,-0.70
2018-02-18T00:47:09.974Z,-0.74
2018-02-18T00:49:37.506Z,-0.82
2018-02-18T00:52:05.502Z,-0.86
2018-02-18T00:54:32.985Z,-0.88
2018-02-18T00:57:00.650Z,-0.98
2018-02-18T00:59:28.268Z,-0.93
2018-02-18T01:01:55.775Z,-1.00
2018-02-18T01:04:23.351Z,-1.07
2018-02-18T01:06:50.807Z,-1.12
2018-02-18T01:09:18.310Z,-1.13
2018-02-18T01:11:45.833Z,-1.15
2018-02-18T01:14:13.292Z,-1.23
2018-02-18T01:16:40.864Z,-1.26
2018-02-18T01:19:08.498Z,-1.29
2018-02-18T01:21:36.898Z,-1.29
2018-02-18T01:24:04.576Z,-1.26
2018-02-18T01:26:34.524Z,-1.29
2018-02-18T01:29:02.051Z,-1.31
2018-02-18T01:31:29.509Z,-1.35
2018-02-18T01:33:56.986Z,-1.33
2018-02-18T01:36:24.448Z,-1.31
2018-02-18T01:38:51.935Z,-1.36
2018-02-18T01:41:19.387Z,-1.33
2018-02-18T01:43:46.851Z,-1.29
2018-02-18T01:46:14.305Z,-1.21
2018-02-18T01:48:41.776Z,-1.07
2018-02-18T01:51:09.226Z,-0.92
2018-02-18T01:53:36.719Z,-0.79
2018-02-18T01:56:04.211Z,-0.65
2018-02-18T01:58:31.667Z,-0.40
2018-02-18T02:00:59.129Z,-0.26
2018-02-18T02:03:26.597Z,-0.12
2018-02-18T02:05:54.100Z,0.02
2018-02-18T02:08:21.552Z,0.14
2018-02-18T02:10:49.027Z,0.26
2018-02-18T02:13:16.479Z,0.42
2018-02-18T02:15:43.980Z,0.49
2018-02-18T02:18:11.441Z,0.55
2018-02-18T02:20:38.950Z,0.61
2018-02-18T02:23:06.491Z,0.63
2018-02-18T02:25:33.961Z,0.55
2018-02-18T02:28:01.429Z,0.65
2018-02-18T02:30:28.931Z,0.64
2018-02-18T02:32:56.396Z,0.69
2018-02-18T02:35:23.857Z,0.66
2018-02-18T02:37:51.336Z,0.68
2018-02-18T02:40:18.788Z,0.77
2018-02-18T02:42:46.229Z,0.76
2018-02-18T02:45:13.683Z,0.87
2018-02-18T02:47:42.136Z,0.84
2018-02-18T02:50:09.608Z,0.58
2018-02-18T02:52:37.079Z,0.53
2018-02-18T02:55:04.550Z,0.48
2018-02-18T02:57:33.975Z,0.47
2018-02-18T03:00:01.483Z,0.53
2018-02-18T03:02:28.938Z,0.63
2018-02-18T03:04:56.390Z,0.72
2018-02-18T03:07:23.887Z,0.51
2018-02-18T03:09:51.342Z,0.64
2018-02-18T03:12:18.791Z,0.68
2018-02-18T03:14:46.256Z,0.59
2018-02-18T03:17:13.713Z,0.57
2018-02-18T03:19:41.194Z,0.65
2018-02-18T03:22:08.644Z,0.74
2018-02-18T03:24:36.107Z,0.88
2018-02-18T03:27:03.559Z,0.86
2018-02-18T03:29:31.556Z,0.79
2018-02-18T03:31:59.011Z,0.81
2018-02-18T03:34:26.481Z,0.75
2018-02-18T03:36:53.938Z,0.83
2018-02-18T03:39:21.396Z,0.79
2018-02-18T03:41:48.848Z,0.80
2018-02-18T03:44:16.297Z,0.81
2018-02-18T03:46:43.749Z,0.81
2018-02-18T03:49:12.224Z,0.71
2018-02-18T03:51:39.689Z,0.68
2018-02-18T03:54:07.144Z,0.64
2018-02-18T03:56:34.582Z,0.72
2018-02-18T03:59:02.063Z,0.70
2018-02-18T04:01:29.528Z,0.76
2018-02-18T04:03:56.983Z,0.68
2018-02-18T04:06:24.453Z,0.58
2018-02-18T04:08:51.906Z,0.19
2018-02-18T04:11:19.368Z,0.37
2018-02-18T04:13:46.856Z,0.46
2018-02-18T04:16:14.306Z,0.59
2018-02-18T04:18:41.772Z,0.52
2018-02-18T04:21:09.214Z,0.61
2018-02-18T04:23:36.676Z,0.52
2018-02-18T04:26:04.129Z,0.65
2018-02-18T04:28:31.595Z,0.66
2018-02-18T04:30:59.042Z,0.67
2018-02-18T04:33:26.503Z,0.72
2018-02-18T04:35:53.948Z,0.61
2018-02-18T04:38:21.416Z,0.70
2018-02-18T04:40:48.878Z,0.69
2018-02-18T04:43:16.332Z,0.70
2018-02-18T04:45:43.817Z,0.45
2018-02-18T04:48:11.303Z,0.14
2018-02-18T04:50:38.746Z,0.19
2018-02-18T04:53:06.212Z,0.22
2018-02-18T04:55:33.683Z,0.21
2018-02-18T04:58:01.152Z,0.15
2018-02-18T05:00:28.616Z,0.13
2018-02-18T05:02:56.075Z,0.04
2018-02-18T05:05:23.526Z,0.19
2018-02-18T05:07:50.986Z,0.30
2018-02-18T05:10:18.442Z,0.27
2018-02-18T05:12:45.898Z,0.25
2018-02-18T05:15:13.347Z,0.21
2018-02-18T05:17:40.812Z,0.23
2018-02-18T05:20:08.264Z,0.30
2018-02-18T05:22:35.727Z,0.26
2018-02-18T05:25:03.247Z,0.19
2018-02-18T05:27:30.694Z,0.18
2018-02-18T05:29:59.202Z,0.21
2018-02-18T05:32:26.688Z,0.27
2018-02-18T05:34:54.130Z,0.24
2018-02-18T05:37:21.590Z,0.23
2018-02-18T05:39:49.052Z,0.14
2018-02-18T05:42:16.509Z,-0.12
2018-02-18T05:44:43.967Z,-0.11
2018-02-18T05:47:11.424Z,-0.14
2018-02-18T05:49:38.883Z,0.01
2018-02-18T05:52:06.338Z,0.13
2018-02-18T05:54:33.796Z,0.00
2018-02-18T05:57:01.253Z,0.11
2018-02-18T05:59:28.721Z,0.05
2018-02-18T06:01:56.194Z,-0.01
2018-02-18T06:04:23.706Z,0.01
2018-02-18T06:06:51.166Z,0.00
2018-02-18T06:09:18.634Z,-0.01
2018-02-18T06:11:46.089Z,0.10
2018-02-18T06:14:13.536Z,0.14
2018-02-18T06:16:41.032Z,0.20
2018-02-18T06:19:08.482Z,0.22
2018-02-18T06:21:35.940Z,0.08
2018-02-18T06:24:03.390Z,0.16
2018-02-18T06:26:30.846Z,0.21
2018-02-18T06:28:58.303Z,0.26
2018-02-18T06:31:25.763Z,0.33
2018-02-18T06:33:53.252Z,0.42
2018-02-18T06:36:20.704Z,0.45
2018-02-18T06:38:48.144Z,0.51
2018-02-18T06:41:15.609Z,0.49
2018-02-18T06:43:43.061Z,0.49
2018-02-18T06:46:10.530Z,0.55
2018-02-18T06:48:37.982Z,0.56
2018-02-18T06:51:05.431Z,0.55
2018-02-18T06:53:32.891Z,0.55
2018-02-18T06:56:00.370Z,0.52
2018-02-18T06:58:27.848Z,0.49
2018-02-18T07:00:55.299Z,0.60
2018-02-18T07:03:22.759Z,0.58
2018-02-18T07:05:50.200Z,0.73
2018-02-18T07:08:17.674Z,0.74
2018-02-18T07:10:45.129Z,0.69
2018-02-18T07:13:12.587Z,0.69
2018-02-18T07:15:40.047Z,0.74
2018-02-18T07:18:07.538Z,0.82
2018-02-18T07:20:35.010Z,0.76
2018-02-18T07:23:02.476Z,0.87
2018-02-18T07:25:29.980Z,0.98
2018-02-18T07:27:57.461Z,1.00
2018-02-18T07:30:24.924Z,1.06
2018-02-18T07:32:52.373Z,1.00
2018-02-18T07:35:19.837Z,0.97
2018-02-18T07:37:47.293Z,1.36
2018-02-18T07:40:14.752Z,1.39
2018-02-18T07:42:42.208Z,1.14
2018-02-18T07:45:10.036Z,1.52
2018-02-18T07:47:37.490Z,1.45
2018-02-18T07:50:04.952Z,1.43
2018-02-18T07:52:32.423Z,1.67
2018-02-18T07:55:00.052Z,1.73
2018-02-18T07:57:27.758Z,1.69
2018-02-18T07:59:55.201Z,1.87
2018-02-18T08:02:22.671Z,1.92
2018-02-18T08:04:50.130Z,2.11
2018-02-18T08:07:17.599Z,2.10
2018-02-18T08:09:45.063Z,2.32
2018-02-18T08:12:12.516Z,2.27
2018-02-18T08:14:39.984Z,2.17
2018-02-18T08:17:07.443Z,2.17
2018-02-18T08:19:34.902Z,2.27
2018-02-18T08:22:02.362Z,2.08
2018-02-18T08:24:29.811Z,2.40
2018-02-18T08:26:57.266Z,2.51
2018-02-18T08:29:24.826Z,2.93
2018-02-18T08:31:52.691Z,3.21
2018-02-18T08:34:20.142Z,3.30
2018-02-18T08:36:47.606Z,3.28
2018-02-18T08:39:15.116Z,3.01
2018-02-18T08:41:43.163Z,3.08
2018-02-18T08:44:10.629Z,3.14
2018-02-18T08:46:38.100Z,3.37
2018-02-18T08:49:05.572Z,3.74
2018-02-18T08:51:33.030Z,3.36
2018-02-18T08:54:00.656Z,3.48
2018-02-18T08:56:28.126Z,3.70
2018-02-18T08:58:55.653Z,3.51
2018-02-18T09:01:23.448Z,3.82
2018-02-18T09:03:50.897Z,4.11
2018-02-18T09:06:18.358Z,4.00
2018-02-18T09:08:45.806Z,3.78
2018-02-18T09:11:13.366Z,4.00
2018-02-18T09:13:40.843Z,4.12
2018-02-18T09:16:08.302Z,4.27
2018-02-18T09:18:35.766Z,4.55
2018-02-18T09:21:03.221Z,4.23
2018-02-18T09:23:31.374Z,4.03
2018-02-18T09:25:58.871Z,3.89
2018-02-18T09:28:26.333Z,4.24
2018-02-18T09:30:54.553Z,3.96
2018-02-18T09:33:22.242Z,4.27
2018-02-18T09:35:51.026Z,4.61
2018-02-18T09:38:18.492Z,4.61
2018-02-18T09:40:47.998Z,4.86
2018-02-18T09:43:17.012Z,4.83
2018-02-18T09:45:44.830Z,4.84
2018-02-18T09:48:13.699Z,4.75
2018-02-18T09:50:41.149Z,4.84
2018-02-18T09:53:08.631Z,4.83
2018-02-18T09:55:37.130Z,5.15
2018-02-18T09:58:04.587Z,5.21
2018-02-18T10:00:34.250Z,5.48
2018-02-18T10:03:01.773Z,5.84
2018-02-18T10:05:29.290Z,5.20
2018-02-18T10:07:56.722Z,5.16
2018-02-18T10:10:24.318Z,5.40
2018-02-18T10:12:51.787Z,5.34
2018-02-18T10:15:19.291Z,5.28
2018-02-18T10:17:46.883Z,5.36
2018-02-18T10:20:15.432Z,5.34
2018-02-18T10:22:42.997Z,5.34
2018-02-18T10:25:10.465Z,5.38
2018-02-18T10:27:37.951Z,5.73
2018-02-18T10:30:05.893Z,6.26
2018-02-18T10:32:33.410Z,6.58
2018-02-18T10:35:00.961Z,7.05
2018-02-18T10:37:28.433Z,6.36
2018-02-18T10:39:56.155Z,6.48
2018-02-18T10:42:23.671Z,6.18
2018-02-18T10:44:51.126Z,6.82
2018-02-18T10:47:22.278Z,7.00
2018-02-18T10:49:49.766Z,7.41
2018-02-18T10:52:17.231Z,7.84
2018-02-18T10:54:44.698Z,7.34
2018-02-18T10:57:12.340Z,7.84
2018-02-18T10:59:39.791Z,7.78
2018-02-18T11:02:07.260Z,7.92
2018-02-18T11:04:35.619Z,8.04
2018-02-18T11:07:03.192Z,7.68
2018-02-18T11:09:30.663Z,7.80
2018-02-18T11:11:58.119Z,8.18
2018-02-18T11:14:25.566Z,7.18
2018-02-18T11:16:53.043Z,7.51
2018-02-18T11:19:20.496Z,7.22
2018-02-18T11:21:47.950Z,6.96
2018-02-18T11:24:15.432Z,6.74
2018-02-18T11:26:42.925Z,6.27
2018-02-18T11:29:10.378Z,6.32
2018-02-18T11:31:37.832Z,5.97
2018-02-18T11:34:05.288Z,6.16
2018-02-18T11:36:32.751Z,5.81
2018-02-18T11:39:00.213Z,5.86
2018-02-18T11:41:27.698Z,6.13
2018-02-18T11:43:55.179Z,6.02
2018-02-18T11:46:22.639Z,5.34
2018-02-18T11:48:50.109Z,5.92
2018-02-18T11:51:17.573Z,6.19
2018-02-18T11:53:45.029Z,6.35
2018-02-18T11:56:12.519Z,6.14
2018-02-18T11:58:39.992Z,6.31
2018-02-18T12:01:07.451Z,6.29
2018-02-18T12:03:34.954Z,6.07
2018-02-18T12:06:03.480Z,5.92
2018-02-18T12:08:30.946Z,6.51
2018-02-18T12:10:58.390Z,6.18
2018-02-18T12:13:29.031Z,6.18
2018-02-18T12:15:56.745Z,5.78
2018-02-18T12:18:25.932Z,5.88
2018-02-18T12:20:53.816Z,6.07
2018-02-18T12:23:22.232Z,6.18
2018-02-18T12:25:49.696Z,6.15
2018-02-18T12:28:17.145Z,6.26
2018-02-18T12:30:44.630Z,6.38
2018-02-18T12:33:13.357Z,6.71
2018-02-18T12:35:40.863Z,6.63
2018-02-18T12:38:09.490Z,6.66
2018-02-18T12:40:37.097Z,6.53
2018-02-18T12:43:04.578Z,6.32
2018-02-18T12:45:32.038Z,6.45
2018-02-18T12:47:59.506Z,6.53
2018-02-18T12:50:27.442Z,6.81
2018-02-18T12:52:54.940Z,7.10
2018-02-18T12:55:22.396Z,6.80
2018-02-18T12:57:50.011Z,7.20
2018-02-18T13:00:17.534Z,7.71
2018-02-18T13:02:46.278Z,7.46
2018-02-18T13:05:14.901Z,7.74
2018-02-18T13:07:43.415Z,7.99
2018-02-18T13:10:10.914Z,7.94
2018-02-18T13:12:38.628Z,7.42
2018-02-18T13:15:06.769Z,7.23
2018-02-18T13:17:34.239Z,6.84
2018-02-18T13:20:01.710Z,6.75
2018-02-18T13:22:29.817Z,7.03
2018-02-18T13:24:57.294Z,7.07
2018-02-18T13:27:26.212Z,7.26
2018-02-18T13:29:54.273Z,7.14
2018-02-18T13:32:21.769Z,6.87
2018-02-18T13:34:51.431Z,7.19
2018-02-18T13:37:19.180Z,7.31
2018-02-18T13:39:46.699Z,7.12
2018-02-18T13:42:14.254Z,6.99
2018-02-18T13:44:41.744Z,6.62
2018-02-18T13:47:09.210Z,7.03
2018-02-18T13:49:37.100Z,6.53
2018-02-18T13:52:04.781Z,6.60
2018-02-18T13:54:32.306Z,7.29
2018-02-18T13:56:59.788Z,6.89
2018-02-18T13:59:27.277Z,6.92
2018-02-18T14:01:55.544Z,6.94
2018-02-18T14:04:24.284Z,6.39
2018-02-18T14:06:51.745Z,6.42
2018-02-18T14:09:19.239Z,6.25
2018-02-18T14:11:46.729Z,5.81
2018-02-18T14:14:15.022Z,5.35
2018-02-18T14:16:42.491Z,5.48
2018-02-18T14:19:09.965Z,5.40
2018-02-18T14:21:37.410Z,5.32
2018-02-18T14:24:05.341Z,5.13
2018-02-18T14:26:33.436Z,4.57
2018-02-18T14:29:00.951Z,4.74
2018-02-18T14:31:29.612Z,4.88
2018-02-18T14:33:57.172Z,4.45
2018-02-18T14:36:24.620Z,4.48
2018-02-18T14:38:53.315Z,4.38
2018-02-18T14:41:32.670Z,4.02
2018-02-18T14:44:12.119Z,3.83
2018-02-18T14:46:51.436Z,3.47
2018-02-18T14:49:30.732Z,3.58
2018-02-18T14:52:10.335Z,3.62
2018-02-18T14:57:42.457Z,3.91
2018-02-18T15:00:09.988Z,3.87
2018-02-18T15:02:37.477Z,3.94
2018-02-18T15:05:04.941Z,3.86
2018-02-18T15:07:32.446Z,3.65
2018-02-18T15:09:59.897Z,3.61
2018-02-18T15:12:27.430Z,3.44
2018-02-18T15:14:54.907Z,3.36
2018-02-18T15:17:22.396Z,3.36
2018-02-18T15:19:49.861Z,3.46
2018-02-18T15:22:17.341Z,3.52
2018-02-18T15:24:44.799Z,3.42
2018-02-18T15:27:12.250Z,3.39
2018-02-18T15:29:39.704Z,3.23
2018-02-18T15:32:07.187Z,3.25
2018-02-18T15:34:34.695Z,3.36
2018-02-18T15:37:02.155Z,3.33
2018-02-18T15:39:29.632Z,3.19
2018-02-18T15:41:57.110Z,3.19
2018-02-18T15:44:24.560Z,3.07
2018-02-18T15:46:52.115Z,3.10
2018-02-18T15:49:19.561Z,3.08
2018-02-18T15:51:47.035Z,3.02
2018-02-18T15:54:14.490Z,2.83
2018-02-18T15:56:42.031Z,2.98
2018-02-18T15:59:09.512Z,2.97
2018-02-18T16:01:36.969Z,2.87
2018-02-18T16:04:04.421Z,2.93
2018-02-18T16:06:31.901Z,2.82
2018-02-18T16:08:59.361Z,2.85
2018-02-18T16:11:26.870Z,2.88
2018-02-18T16:13:54.334Z,2.79
2018-02-18T16:16:21.832Z,2.75
2018-02-18T16:18:49.291Z,2.72
2018-02-18T16:21:16.773Z,2.71
2018-02-18T16:23:44.267Z,2.65
2018-02-18T16:26:11.723Z,2.71
2018-02-18T16:28:39.530Z,2.59
2018-02-18T16:31:07.705Z,2.58
2018-02-18T16:33:35.325Z,2.48
2018-02-18T16:36:02.843Z,2.49
2018-02-18T16:38:31.362Z,2.36
2018-02-18T16:40:59.072Z,2.41
2018-02-18T16:43:26.606Z,2.38
2018-02-18T16:45:54.077Z,2.37
2018-02-18T16:48:21.523Z,2.39
2018-02-18T16:50:48.974Z,2.25
2018-02-18T16:53:16.445Z,2.26
2018-02-18T16:55:44.266Z,2.30
2018-02-18T16:58:11.990Z,2.20
2018-02-18T17:00:39.830Z,2.12
2018-02-18T17:03:07.328Z,2.10
2018-02-18T17:05:35.312Z,2.03
2018-02-18T17:08:02.955Z,2.01
2018-02-18T17:10:30.414Z,1.98
2018-02-18T17:12:57.874Z,1.99
2018-02-18T17:15:26.432Z,1.96
2018-02-18T17:17:54.554Z,2.02
2018-02-18T17:20:22.111Z,2.03
2018-02-18T17:22:49.643Z,2.02
2018-02-18T17:25:17.906Z,2.01
2018-02-18T17:27:45.423Z,2.01
2018-02-18T17:30:13.990Z,1.96
2018-02-18T17:32:41.533Z,1.96
2018-02-18T17:35:09.005Z,1.98
2018-02-18T17:37:37.154Z,1.97
2018-02-18T17:40:07.874Z,1.92
2018-02-18T17:42:38.855Z,1.91
2018-02-18T17:45:06.514Z,1.93
2018-02-18T17:47:34.343Z,1.96
2018-02-18T17:50:01.850Z,1.98
2018-02-18T17:52:29.293Z,1.98
2018-02-18T17:54:56.768Z,2.01
2018-02-18T17:57:24.276Z,2.02
2018-02-18T17:59:51.706Z,2.08
2018-02-18T18:02:19.176Z,2.09
2018-02-18T18:04:46.619Z,2.12
2018-02-18T18:07:14.326Z,2.13
2018-02-18T18:09:41.773Z,2.11
2018-02-18T18:12:09.231Z,2.16
2018-02-18T18:14:36.747Z,2.12
2018-02-18T18:17:04.276Z,2.15
2018-02-18T18:19:31.737Z,2.09
2018-02-18T18:21:59.229Z,2.11
2018-02-18T18:24:26.694Z,2.12
2018-02-18T18:26:54.198Z,2.18
2018-02-18T18:29:21.734Z,2.07
2018-02-18T18:31:49.200Z,2.13
2018-02-18T18:34:16.865Z,2.13
2018-02-18T18:36:45.546Z,2.19
2018-02-18T18:39:13.050Z,2.08
2018-02-18T18:41:40.808Z,2.09
2018-02-18T18:44:08.681Z,2.04
2018-02-18T18:46:36.301Z,2.08
2018-02-18T18:49:03.795Z,2.06
2018-02-18T18:51:31.278Z,2.06
2018-02-18T18:53:58.734Z,2.03
2018-02-18T18:56:26.190Z,2.09
2018-02-18T18:58:54.177Z,2.17
2018-02-18T19:01:22.048Z,2.12
2018-02-18T19:03:49.918Z,2.20
2018-02-18T19:06:17.579Z,2.12
2018-02-18T19:08:45.044Z,2.13
2018-02-18T19:11:12.737Z,2.13
2018-02-18T19:13:40.378Z,2.13
2018-02-18T19:16:11.249Z,2.29
2018-02-18T19:18:38.848Z,2.23
2018-02-18T19:21:06.417Z,2.21
2018-02-18T19:23:33.870Z,2.21
2018-02-18T19:26:01.907Z,2.23
2018-02-18T19:28:29.384Z,2.20
2018-02-18T19:30:57.060Z,2.20
2018-02-18T19:33:24.529Z,2.18
2018-02-18T19:35:52.036Z,2.20
2018-02-18T19:38:22.972Z,2.28
2018-02-18T19:40:50.639Z,2.19
2018-02-18T19:43:18.423Z,2.30
2018-02-18T19:45:45.876Z,2.23
2018-02-18T19:48:13.394Z,2.18
2018-02-18T19:50:41.181Z,2.12
2018-02-18T19:53:17.565Z,2.16
2018-02-18T19:55:45.110Z,2.16
2018-02-18T19:58:12.782Z,2.19
2018-02-18T20:00:40.416Z,2.20
2018-02-18T20:03:07.990Z,2.29
2018-02-18T20:05:35.468Z,2.31
2018-02-18T20:08:08.904Z,2.21
2018-02-18T20:10:36.457Z,2.22
2018-02-18T20:13:03.898Z,2.21
2018-02-18T20:15:31.426Z,2.22
2018-02-18T20:17:58.990Z,2.28
2018-02-18T20:20:26.896Z,2.26
2018-02-18T20:22:59.692Z,2.28
2018-02-18T20:25:27.431Z,2.28
2018-02-18T20:27:55.072Z,2.26
2018-02-18T20:30:23.538Z,2.29
2018-02-18T20:32:50.995Z,2.29
2018-02-18T20:35:18.972Z,2.29
2018-02-18T20:37:47.101Z,2.24
2018-02-18T20:40:14.703Z,2.16
2018-02-18T20:42:42.158Z,2.25
2018-02-18T20:45:11.717Z,2.22
2018-02-18T20:47:39.163Z,2.22
2018-02-18T20:50:06.678Z,2.23
2018-02-18T20:52:34.151Z,2.16
2018-02-18T20:55:01.594Z,2.20
2018-02-18T20:57:29.058Z,2.25
2018-02-18T20:59:56.515Z,2.10
2018-02-18T21:02:24.126Z,2.22
2018-02-18T21:04:51.572Z,2.04
2018-02-18T21:07:19.049Z,2.06
2018-02-18T21:09:46.512Z,2.07
2018-02-18T21:12:14.273Z,2.07
2018-02-18T21:14:41.739Z,2.09
2018-02-18T21:17:09.243Z,2.16
2018-02-18T21:19:36.750Z,2.11
2018-02-18T21:22:04.241Z,2.19
2018-02-18T21:24:31.788Z,2.14
2018-02-18T21:26:59.320Z,2.13
2018-02-18T21:29:26.823Z,2.20
2018-02-18T21:31:54.280Z,2.21
2018-02-18T21:34:21.726Z,2.16
2018-02-18T21:36:49.195Z,2.24
2018-02-18T21:39:16.661Z,2.21
2018-02-18T21:41:44.274Z,2.16
2018-02-18T21:44:11.794Z,2.11
2018-02-18T21:46:39.326Z,2.09
2018-02-18T21:49:06.862Z,2.10
2018-02-18T21:51:34.336Z,2.16
2018-02-18T21:54:01.856Z,2.09
2018-02-18T21:56:29.324Z,2.17
2018-02-18T21:58:56.793Z,2.15
2018-02-18T22:01:24.281Z,2.12
2018-02-18T22:03:51.745Z,2.10
2018-02-18T22:06:19.206Z,2.09
2018-02-18T22:08:46.676Z,2.11
2018-02-18T22:11:14.128Z,2.12
2018-02-18T22:13:41.606Z,2.06
2018-02-18T22:16:09.131Z,2.13
2018-02-18T22:18:36.889Z,2.15
2018-02-18T22:21:04.410Z,2.07
2018-02-18T22:23:31.932Z,2.09
2018-02-18T22:25:59.708Z,2.13
2018-02-18T22:28:27.294Z,2.08
2018-02-18T22:30:54.768Z,2.13
2018-02-18T22:33:22.220Z,2.18
2018-02-18T22:35:52.504Z,2.11
2018-02-18T22:38:19.995Z,2.07
2018-02-18T22:40:47.463Z,2.04
2018-02-18T22:43:15.255Z,2.01
2018-02-18T22:45:42.698Z,2.11
2018-02-18T22:48:10.170Z,2.09
2018-02-18T22:50:37.618Z,2.08
2018-02-18T22:53:05.078Z,2.06
2018-02-18T22:55:32.533Z,1.99
2018-02-18T22:57:59.982Z,2.00
2018-02-18T23:00:27.486Z,2.06
2018-02-18T23:02:55.021Z,2.00
2018-02-18T23:05:28.062Z,1.95
2018-02-18T23:07:55.524Z,2.04
2018-02-18T23:10:22.999Z,2.04
2018-02-18T23:12:50.441Z,2.07
2018-02-18T23:15:17.891Z,2.12
2018-02-18T23:17:45.362Z,2.13
2018-02-18T23:20:12.828Z,2.11
2018-02-18T23:22:40.294Z,2.11
2018-02-18T23:25:07.749Z,2.07
2018-02-18T23:27:35.268Z,2.12
2018-02-18T23:30:03.349Z,2.10
2018-02-18T23:32:30.842Z,2.15
2018-02-18T23:34:58.312Z,2.03
2018-02-18T23:37:25.758Z,2.09
2018-02-18T23:39:53.199Z,2.05
2018-02-18T23:42:20.670Z,2.07
2018-02-18T23:44:48.211Z,2.01
2018-02-18T23:47:15.704Z,2.02
2018-02-18T23:49:43.161Z,1.98
2018-02-18T23:52:10.611Z,1.98
2018-02-18T23:54:38.072Z,1.99
2018-02-18T23:57:05.521Z,2.04
2018-02-18T23:59:32.997Z,2.07
